Weather at Piraeus Heliport

Public forecast

Using degrees Celsius for public forecast. Weather courtesy of forecast.io.

Closest aviation weather report (METAR) to Piraeus Heliport

Closest report is Elefsis Airport, 4.4 nm (8.2 km) NNW. Retrieved 2021/04/17 09:50 UTC (32 minutes ago):

LGEL 170950Z 34009KT 9999 SCT025 19/10 Q1009

Closest aviation forecast (TAF) to Piraeus Heliport

Closest forecast is Elefsis Airport, 4.4 nm (8.2 km) NNW. Retrieved 2021/04/17 06:12 UTC (4 hours ago):

TAF LGEL 170500Z 1706/1806 36012KT 9999 FEW018 BKN070 PROB30 TEMPO 1706/1709 5000 RA SCT015 BKN030 BKN070 BECMG 1708/1710 SCT020